createdAt,value
2023-05-09T00:02:11.376Z,12.42
2023-05-09T00:04:38.304Z,12.47
2023-05-09T00:07:05.076Z,12.48
2023-05-09T00:09:31.816Z,12.50
2023-05-09T00:11:59.822Z,12.53
2023-05-09T00:14:26.568Z,12.46
2023-05-09T00:16:53.302Z,12.41
2023-05-09T00:19:20.183Z,12.36
2023-05-09T00:21:46.895Z,12.45
2023-05-09T00:24:13.557Z,12.49
2023-05-09T00:26:40.252Z,12.53
2023-05-09T00:29:08.340Z,12.53
2023-05-09T00:31:35.061Z,12.50
2023-05-09T00:34:02.228Z,12.53
2023-05-09T00:36:28.926Z,12.52
2023-05-09T00:38:55.616Z,12.51
2023-05-09T00:41:22.362Z,12.50
2023-05-09T00:43:49.034Z,12.53
2023-05-09T00:46:17.248Z,12.48
2023-05-09T00:48:44.176Z,12.45
2023-05-09T00:51:10.870Z,12.47
2023-05-09T00:53:38.066Z,12.53
2023-05-09T00:56:05.555Z,12.49
2023-05-09T00:58:32.441Z,12.54
2023-05-09T01:00:59.182Z,12.51
2023-05-09T01:03:27.561Z,12.59
2023-05-09T01:06:01.964Z,12.57
2023-05-09T01:08:41.354Z,12.59
2023-05-09T01:11:12.981Z,12.61
2023-05-09T01:13:49.687Z,12.60
2023-05-09T01:16:23.633Z,12.55
2023-05-09T01:19:01.029Z,12.52
2023-05-09T01:21:30.349Z,12.50
2023-05-09T01:24:07.899Z,12.51
2023-05-09T01:26:44.468Z,12.53
2023-05-09T01:29:31.653Z,12.63
2023-05-09T01:31:58.769Z,12.68
2023-05-09T01:34:28.476Z,12.68
2023-05-09T01:36:58.568Z,12.68
2023-05-09T01:39:27.071Z,12.70
2023-05-09T01:41:56.634Z,12.71
2023-05-09T01:44:26.792Z,12.70
2023-05-09T01:46:54.770Z,12.73
2023-05-09T01:49:22.986Z,12.75
2023-05-09T01:51:50.840Z,12.73
2023-05-09T01:54:18.713Z,12.75
2023-05-09T01:56:47.324Z,12.74
2023-05-09T01:59:16.076Z,12.81
2023-05-09T02:01:45.151Z,12.88
2023-05-09T02:04:14.008Z,12.90
2023-05-09T02:06:41.680Z,12.93
2023-05-09T02:09:09.044Z,13.01
2023-05-09T02:11:35.745Z,13.08
2023-05-09T02:14:02.601Z,13.18
2023-05-09T02:16:29.609Z,13.25
2023-05-09T02:18:57.691Z,13.34
2023-05-09T02:21:24.725Z,13.35
2023-05-09T02:23:51.502Z,13.37
2023-05-09T02:26:18.923Z,13.40
2023-05-09T02:28:47.070Z,13.40
2023-05-09T02:31:16.915Z,13.38
2023-05-09T02:33:45.399Z,13.38
2023-05-09T02:36:14.603Z,13.36
2023-05-09T02:38:42.492Z,13.36
2023-05-09T02:41:12.868Z,13.35
2023-05-09T02:43:39.599Z,13.36
2023-05-09T02:46:07.470Z,13.36
2023-05-09T02:48:34.230Z,13.38
2023-05-09T02:51:01.024Z,13.39
2023-05-09T02:53:29.262Z,13.41
2023-05-09T02:55:55.965Z,13.41
2023-05-09T02:58:22.773Z,13.45
2023-05-09T03:00:49.504Z,13.52
2023-05-09T03:03:16.741Z,13.54
2023-05-09T03:05:43.800Z,13.55
2023-05-09T03:08:10.485Z,13.57
2023-05-09T03:10:38.607Z,13.55
2023-05-09T03:13:05.356Z,13.53
2023-05-09T03:15:32.548Z,13.54
2023-05-09T03:18:00.248Z,13.55
2023-05-09T03:20:27.050Z,13.53
2023-05-09T03:22:53.908Z,13.49
2023-05-09T03:25:21.169Z,13.50
2023-05-09T03:27:49.587Z,13.50
2023-05-09T03:30:16.422Z,13.53
2023-05-09T03:32:45.626Z,13.54
2023-05-09T03:35:12.597Z,13.52
2023-05-09T03:37:39.706Z,13.48
2023-05-09T03:40:08.724Z,13.47
2023-05-09T03:42:41.624Z,13.46
2023-05-09T03:45:11.257Z,13.48
2023-05-09T03:47:38.183Z,13.51
2023-05-09T03:50:06.979Z,13.47
2023-05-09T03:52:35.012Z,13.49
2023-05-09T03:55:02.205Z,13.46
2023-05-09T03:57:32.983Z,13.46
2023-05-09T04:00:00.439Z,13.49
2023-05-09T04:02:28.632Z,13.48
2023-05-09T04:04:55.643Z,13.49
2023-05-09T04:07:23.231Z,13.49
2023-05-09T04:09:49.991Z,13.50
2023-05-09T04:12:16.702Z,13.48
2023-05-09T04:14:45.139Z,13.51
2023-05-09T04:17:12.942Z,13.52
2023-05-09T04:19:41.270Z,13.52
2023-05-09T04:22:08.101Z,13.51
2023-05-09T04:24:34.833Z,13.51
2023-05-09T04:27:02.042Z,13.48
2023-05-09T04:29:28.752Z,13.49
2023-05-09T04:31:56.531Z,13.47
2023-05-09T04:34:25.695Z,13.50
2023-05-09T04:36:54.329Z,13.56
2023-05-09T04:39:21.734Z,13.54
2023-05-09T04:42:00.847Z,13.57
2023-05-09T04:44:27.759Z,13.58
2023-05-09T04:46:55.043Z,13.56
2023-05-09T04:49:21.770Z,13.56
2023-05-09T04:51:48.577Z,13.59
2023-05-09T04:54:16.964Z,13.61
2023-05-09T04:56:44.483Z,13.61
2023-05-09T04:59:11.569Z,13.65
2023-05-09T05:01:39.124Z,13.69
2023-05-09T05:04:05.899Z,13.71
2023-05-09T05:06:33.461Z,13.75
2023-05-09T05:09:00.633Z,13.76
2023-05-09T05:11:29.358Z,13.78
2023-05-09T05:13:56.183Z,13.80
2023-05-09T05:16:23.461Z,13.83
2023-05-09T05:18:50.308Z,13.85
2023-05-09T05:21:18.896Z,13.90
2023-05-09T05:23:45.766Z,13.97
2023-05-09T05:26:13.837Z,14.04
2023-05-09T05:28:41.915Z,14.12
2023-05-09T05:31:08.833Z,14.17
2023-05-09T05:33:35.830Z,14.14
2023-05-09T05:36:03.687Z,14.14
2023-05-09T05:38:30.469Z,14.16
2023-05-09T05:40:58.829Z,14.12
2023-05-09T05:43:27.710Z,14.09
2023-05-09T05:45:56.166Z,14.10
2023-05-09T05:48:25.038Z,14.13
2023-05-09T05:50:53.502Z,14.07
2023-05-09T05:53:23.943Z,14.06
2023-05-09T05:55:51.478Z,14.04
2023-05-09T05:58:18.215Z,14.02
2023-05-09T06:00:45.103Z,14.00
2023-05-09T06:03:13.221Z,14.02
2023-05-09T06:06:06.228Z,14.04
2023-05-09T06:08:32.926Z,14.06
2023-05-09T06:11:01.241Z,14.03
2023-05-09T06:13:28.515Z,14.05
2023-05-09T06:16:15.071Z,14.00
2023-05-09T06:18:47.012Z,14.03
2023-05-09T06:21:13.767Z,14.03
2023-05-09T06:23:44.758Z,14.03
2023-05-09T06:26:17.701Z,13.95
2023-05-09T06:28:44.432Z,13.92
2023-05-09T06:31:11.218Z,13.95
2023-05-09T06:33:38.026Z,13.98
2023-05-09T06:36:06.468Z,13.97
2023-05-09T06:38:34.144Z,13.94
2023-05-09T06:41:01.049Z,13.98
2023-05-09T06:43:27.821Z,13.92
2023-05-09T06:45:54.605Z,13.92
2023-05-09T06:48:21.394Z,13.87
2023-05-09T06:50:48.313Z,13.86
2023-05-09T06:53:16.892Z,13.84
2023-05-09T06:55:44.122Z,13.82
2023-05-09T06:58:11.063Z,13.81
2023-05-09T07:00:37.964Z,13.82
2023-05-09T07:03:04.911Z,13.79
2023-05-09T07:05:31.668Z,13.81
2023-05-09T07:07:58.459Z,13.81
2023-05-09T07:10:26.740Z,13.81
2023-05-09T07:12:53.547Z,13.77
2023-05-09T07:15:32.483Z,13.80
2023-05-09T07:18:07.232Z,13.80
2023-05-09T07:20:33.958Z,13.72
2023-05-09T07:23:00.769Z,13.65
2023-05-09T07:25:28.865Z,13.69
2023-05-09T07:27:55.566Z,13.63
2023-05-09T07:30:22.741Z,13.61
2023-05-09T07:32:49.490Z,13.66
2023-05-09T07:35:16.376Z,13.69
2023-05-09T07:37:43.344Z,13.71
2023-05-09T07:40:10.796Z,13.69
2023-05-09T07:42:38.883Z,13.67
2023-05-09T07:45:06.836Z,13.70
2023-05-09T07:47:34.043Z,13.67
2023-05-09T07:50:00.743Z,13.61
2023-05-09T07:52:27.468Z,13.63
2023-05-09T07:54:54.119Z,13.54
2023-05-09T07:57:20.808Z,13.59
2023-05-09T07:59:49.132Z,13.59
2023-05-09T08:02:15.886Z,13.58
2023-05-09T08:04:42.602Z,13.59
2023-05-09T08:07:09.302Z,13.60
2023-05-09T08:09:36.183Z,13.63
2023-05-09T08:12:02.967Z,13.61
2023-05-09T08:14:29.670Z,13.68
2023-05-09T08:16:57.812Z,13.66
2023-05-09T08:19:24.626Z,13.69
2023-05-09T08:21:51.330Z,13.70
2023-05-09T08:24:18.032Z,13.71
2023-05-09T08:26:44.757Z,13.79
2023-05-09T08:29:11.511Z,13.87
2023-05-09T08:31:38.630Z,13.90
2023-05-09T08:34:07.126Z,13.95
2023-05-09T08:36:33.909Z,13.95
2023-05-09T08:39:00.980Z,13.88
2023-05-09T08:41:27.818Z,13.90
2023-05-09T08:43:56.571Z,13.86
2023-05-09T08:46:27.864Z,13.88
2023-05-09T08:48:55.142Z,13.86
2023-05-09T08:51:23.831Z,13.93
2023-05-09T08:53:50.975Z,14.09
2023-05-09T08:56:18.468Z,14.05
2023-05-09T08:58:45.771Z,14.09
2023-05-09T09:01:13.907Z,14.15
2023-05-09T09:03:41.692Z,14.28
2023-05-09T09:06:09.727Z,14.13
2023-05-09T09:08:38.124Z,14.16
2023-05-09T09:11:04.989Z,14.00
2023-05-09T09:13:34.924Z,14.03
2023-05-09T09:16:02.136Z,14.07
2023-05-09T09:18:30.327Z,14.00
2023-05-09T09:21:00.984Z,14.03
2023-05-09T09:23:30.477Z,14.10
2023-05-09T09:26:00.026Z,14.10
2023-05-09T09:28:27.148Z,14.11
2023-05-09T09:30:53.991Z,14.01
2023-05-09T09:33:21.219Z,13.99
2023-05-09T09:35:49.105Z,13.97
2023-05-09T09:38:17.239Z,13.93
2023-05-09T09:40:49.241Z,13.85
2023-05-09T09:43:17.407Z,13.85
2023-05-09T09:45:44.239Z,13.88
2023-05-09T09:48:11.021Z,13.86
2023-05-09T09:50:37.983Z,13.89
2023-05-09T09:53:04.738Z,13.96
2023-05-09T09:55:32.053Z,13.98
2023-05-09T09:57:58.767Z,14.00
2023-05-09T10:00:28.291Z,14.08
2023-05-09T10:02:56.278Z,14.04
2023-05-09T10:05:24.652Z,14.09
2023-05-09T10:07:54.553Z,14.11
2023-05-09T10:10:21.600Z,14.08
2023-05-09T10:12:50.286Z,14.00
2023-05-09T10:15:17.888Z,13.96
2023-05-09T10:17:46.267Z,13.93
2023-05-09T10:20:13.917Z,13.97
2023-05-09T10:22:41.762Z,13.98
2023-05-09T10:25:14.998Z,14.04
2023-05-09T10:27:46.300Z,14.04
2023-05-09T10:30:17.079Z,14.03
2023-05-09T10:32:54.786Z,13.93
2023-05-09T10:35:27.995Z,13.88
2023-05-09T10:37:56.192Z,13.86
2023-05-09T10:40:23.538Z,13.90
2023-05-09T10:42:50.929Z,13.87
2023-05-09T10:45:17.994Z,14.05
2023-05-09T10:47:45.939Z,14.07
2023-05-09T10:50:16.278Z,14.11
2023-05-09T10:53:16.237Z,14.12
2023-05-09T10:55:50.364Z,14.07
2023-05-09T10:58:28.014Z,14.21
2023-05-09T11:00:57.288Z,14.14
2023-05-09T11:03:25.553Z,14.23
2023-05-09T11:05:56.269Z,14.28
2023-05-09T11:08:25.267Z,14.30
2023-05-09T11:10:52.866Z,14.20
2023-05-09T11:13:20.905Z,14.17
2023-05-09T11:16:03.379Z,14.16
2023-05-09T11:18:30.787Z,14.18
2023-05-09T11:20:59.880Z,14.15
2023-05-09T11:23:27.618Z,14.08
2023-05-09T11:26:05.043Z,14.13
2023-05-09T11:28:35.606Z,14.08
2023-05-09T11:31:12.843Z,14.13
2023-05-09T11:33:40.572Z,14.20
2023-05-09T11:36:19.749Z,14.24
2023-05-09T11:38:47.534Z,14.28
2023-05-09T11:41:14.340Z,14.24
2023-05-09T11:43:43.310Z,14.19
2023-05-09T11:46:10.177Z,14.23
2023-05-09T11:48:40.800Z,14.21
2023-05-09T11:51:07.690Z,14.26
2023-05-09T11:53:40.594Z,14.28
2023-05-09T11:56:07.536Z,14.25
2023-05-09T11:58:38.676Z,14.33
2023-05-09T12:01:05.663Z,14.26
2023-05-09T12:03:32.559Z,14.17
2023-05-09T12:05:59.495Z,14.14
2023-05-09T12:08:26.165Z,14.12
2023-05-09T12:10:54.331Z,14.15
2023-05-09T12:13:21.097Z,14.23
2023-05-09T12:15:47.922Z,14.30
2023-05-09T12:18:14.817Z,14.36
2023-05-09T12:20:43.184Z,14.38
2023-05-09T12:23:10.668Z,14.33
2023-05-09T12:25:37.426Z,14.36
2023-05-09T12:28:06.049Z,14.48
2023-05-09T12:30:33.088Z,14.43
2023-05-09T12:33:00.316Z,14.36
2023-05-09T12:35:27.797Z,14.39
2023-05-09T12:37:57.412Z,14.59
2023-05-09T12:40:24.857Z,14.55
2023-05-09T12:42:51.669Z,14.47
2023-05-09T12:45:20.288Z,14.50
2023-05-09T12:47:51.746Z,14.56
2023-05-09T12:50:19.089Z,14.58
2023-05-09T12:53:02.171Z,14.63
2023-05-09T12:55:30.940Z,14.46
2023-05-09T12:57:59.421Z,14.59
2023-05-09T13:00:27.705Z,14.64
2023-05-09T13:02:54.845Z,14.59
2023-05-09T13:05:23.283Z,14.44
2023-05-09T13:07:51.690Z,14.45
2023-05-09T13:10:20.110Z,14.41
2023-05-09T13:12:47.356Z,14.41
2023-05-09T13:15:15.086Z,14.43
2023-05-09T13:17:43.545Z,14.39
2023-05-09T13:20:10.396Z,14.40
2023-05-09T13:22:37.506Z,14.40
2023-05-09T13:25:04.885Z,14.35
2023-05-09T13:27:32.380Z,14.43
2023-05-09T13:29:59.296Z,14.53
2023-05-09T13:32:26.096Z,14.60
2023-05-09T13:34:54.218Z,14.72
2023-05-09T13:37:21.436Z,14.75
2023-05-09T13:39:48.343Z,14.71
2023-05-09T13:42:16.756Z,14.59
2023-05-09T13:44:44.331Z,14.54
2023-05-09T13:47:11.463Z,14.45
2023-05-09T13:49:38.667Z,14.41
2023-05-09T13:52:10.332Z,14.43
2023-05-09T13:54:37.110Z,14.37
2023-05-09T13:57:05.023Z,14.35
2023-05-09T13:59:32.103Z,14.33
2023-05-09T14:01:59.229Z,14.35
2023-05-09T14:04:26.401Z,14.36
2023-05-09T14:06:53.150Z,14.37
2023-05-09T14:09:22.160Z,14.41
2023-05-09T14:11:49.022Z,14.48
2023-05-09T14:14:15.693Z,14.72
2023-05-09T14:16:42.395Z,14.84
2023-05-09T14:19:09.281Z,14.95
2023-05-09T14:21:36.034Z,15.04
2023-05-09T14:24:02.912Z,15.01
2023-05-09T14:26:31.011Z,14.95
2023-05-09T14:28:57.767Z,14.98
2023-05-09T14:31:24.599Z,14.93
2023-05-09T14:33:51.399Z,15.02
2023-05-09T14:36:18.170Z,15.03
2023-05-09T14:38:44.912Z,14.97
2023-05-09T14:41:11.822Z,14.89
2023-05-09T14:43:39.961Z,14.90
2023-05-09T14:46:06.712Z,14.79
2023-05-09T14:48:33.648Z,14.80
2023-05-09T14:51:00.584Z,14.83
2023-05-09T14:53:27.952Z,14.86
2023-05-09T14:55:54.833Z,14.79
2023-05-09T14:58:21.775Z,14.80
2023-05-09T15:00:50.332Z,14.70
2023-05-09T15:03:17.063Z,14.69
2023-05-09T15:05:44.689Z,14.72
2023-05-09T15:08:11.476Z,14.81
2023-05-09T15:13:22.557Z,14.75
2023-05-09T15:15:52.186Z,14.84
2023-05-09T15:18:18.948Z,14.90
2023-05-09T15:20:47.185Z,15.02
2023-05-09T15:23:14.082Z,15.13
2023-05-09T15:25:42.665Z,14.91
2023-05-09T15:28:09.450Z,14.94
2023-05-09T15:30:38.205Z,14.98
2023-05-09T15:33:06.967Z,14.95
2023-05-09T15:35:34.096Z,14.86
2023-05-09T15:38:00.839Z,14.79
2023-05-09T15:40:27.764Z,14.80
2023-05-09T15:42:54.503Z,14.80
2023-05-09T15:45:21.252Z,14.85
2023-05-09T15:47:47.988Z,14.93
2023-05-09T15:50:16.858Z,15.00
2023-05-09T15:52:43.807Z,14.88
2023-05-09T15:55:11.413Z,14.90
2023-05-09T15:57:38.497Z,14.85
2023-05-09T16:00:06.547Z,14.86
2023-05-09T16:02:39.260Z,14.93
2023-05-09T16:05:06.745Z,14.92
2023-05-09T16:07:35.892Z,14.89
2023-05-09T16:10:03.050Z,14.78
2023-05-09T16:12:29.879Z,14.83
2023-05-09T16:14:56.716Z,14.89
2023-05-09T16:17:23.587Z,14.85
2023-05-09T16:19:50.274Z,14.74
2023-05-09T16:22:16.961Z,14.64
2023-05-09T16:24:45.110Z,14.49
2023-05-09T16:27:12.811Z,14.48
2023-05-09T16:29:39.509Z,14.41
2023-05-09T16:32:07.015Z,14.38
2023-05-09T16:34:33.724Z,14.40
2023-05-09T16:37:00.434Z,14.41
2023-05-09T16:39:27.273Z,14.39
2023-05-09T16:41:55.619Z,14.46
2023-05-09T16:44:22.998Z,14.43
2023-05-09T16:46:49.662Z,14.43
2023-05-09T16:49:16.337Z,14.45
2023-05-09T16:51:43.382Z,14.40
2023-05-09T16:54:10.441Z,14.14
2023-05-09T16:56:37.518Z,13.90
2023-05-09T16:59:05.639Z,13.82
2023-05-09T17:01:32.572Z,13.72
2023-05-09T17:03:59.622Z,13.73
2023-05-09T17:06:26.413Z,13.77
2023-05-09T17:08:53.262Z,13.80
2023-05-09T17:11:20.107Z,13.80
2023-05-09T17:13:47.087Z,13.80
2023-05-09T17:16:15.239Z,13.82
2023-05-09T17:18:41.960Z,13.79
2023-05-09T17:21:08.703Z,13.80
2023-05-09T17:23:35.510Z,13.81
2023-05-09T17:26:02.445Z,13.77
2023-05-09T17:28:29.596Z,13.79
2023-05-09T17:30:56.395Z,13.74
2023-05-09T17:33:25.580Z,13.68
2023-05-09T17:35:52.492Z,13.63
2023-05-09T17:38:19.218Z,13.63
2023-05-09T17:40:46.011Z,13.58
2023-05-09T17:43:12.757Z,13.56
2023-05-09T17:45:39.827Z,13.54
2023-05-09T17:48:07.003Z,13.46
2023-05-09T17:50:35.295Z,13.46
2023-05-09T17:53:02.198Z,13.42
2023-05-09T17:55:28.873Z,13.42
2023-05-09T17:57:55.681Z,13.39
2023-05-09T18:00:22.663Z,13.41
2023-05-09T18:02:49.415Z,13.37
2023-05-09T18:05:16.245Z,13.32
2023-05-09T18:07:45.048Z,13.29
2023-05-09T18:10:11.935Z,13.28
2023-05-09T18:12:38.681Z,13.24
2023-05-09T18:15:07.739Z,13.24
2023-05-09T18:17:34.588Z,13.23
2023-05-09T18:20:01.402Z,13.18
2023-05-09T18:22:28.234Z,13.21
2023-05-09T18:24:56.360Z,13.10
2023-05-09T18:27:23.101Z,13.01
2023-05-09T18:29:49.871Z,12.90
2023-05-09T18:32:16.711Z,12.88
2023-05-09T18:34:43.601Z,12.84
2023-05-09T18:37:10.406Z,12.77
2023-05-09T18:39:37.176Z,12.75
2023-05-09T18:42:05.539Z,12.69
2023-05-09T18:44:32.254Z,12.60
2023-05-09T18:46:59.068Z,12.56
2023-05-09T18:49:26.367Z,12.51
2023-05-09T18:51:53.152Z,12.48
2023-05-09T18:54:20.208Z,12.48
2023-05-09T18:56:46.880Z,12.38
2023-05-09T18:59:15.133Z,12.38
2023-05-09T19:01:41.876Z,12.32
2023-05-09T19:04:08.741Z,12.27
2023-05-09T19:06:35.659Z,12.19
2023-05-09T19:09:07.624Z,12.17
2023-05-09T19:11:35.397Z,12.15
2023-05-09T19:14:02.687Z,12.15
2023-05-09T19:16:31.154Z,12.14
2023-05-09T19:18:58.873Z,12.15
2023-05-09T19:21:26.167Z,12.09
2023-05-09T19:23:52.958Z,12.09
2023-05-09T19:26:20.092Z,12.09
2023-05-09T19:28:47.292Z,12.10
2023-05-09T19:31:14.915Z,12.11
2023-05-09T19:33:44.066Z,12.09
2023-05-09T19:36:11.154Z,12.04
2023-05-09T19:38:38.079Z,12.01
2023-05-09T19:41:04.788Z,11.96
2023-05-09T19:43:32.633Z,11.97
2023-05-09T19:45:59.515Z,11.94
2023-05-09T19:48:26.321Z,11.94
2023-05-09T19:50:56.814Z,11.93
2023-05-09T19:53:23.579Z,11.91
2023-05-09T19:55:50.297Z,11.92
2023-05-09T19:58:17.706Z,11.81
2023-05-09T20:00:44.860Z,11.81
2023-05-09T20:03:11.804Z,11.77
2023-05-09T20:08:24.373Z,11.66
2023-05-09T20:10:51.159Z,11.67
2023-05-09T20:13:17.959Z,11.63
2023-05-09T20:15:44.685Z,11.65
2023-05-09T20:18:11.754Z,11.63
2023-05-09T20:20:38.743Z,11.58
2023-05-09T20:23:05.559Z,11.67
2023-05-09T20:25:33.682Z,11.64
2023-05-09T20:28:00.587Z,11.68
2023-05-09T20:30:27.565Z,11.67
2023-05-09T20:32:54.357Z,11.66
2023-05-09T20:35:21.283Z,11.70
2023-05-09T20:37:48.040Z,11.71
2023-05-09T20:40:15.205Z,11.71
2023-05-09T20:42:43.897Z,11.71
2023-05-09T20:45:10.752Z,11.70
2023-05-09T20:47:37.457Z,11.76
2023-05-09T20:50:04.740Z,11.77
2023-05-09T20:52:31.416Z,11.78
2023-05-09T20:54:58.180Z,11.77
2023-05-09T20:57:24.874Z,11.81
2023-05-09T20:59:53.085Z,11.86
2023-05-09T21:02:19.925Z,11.77
2023-05-09T21:04:46.611Z,11.77
2023-05-09T21:07:13.532Z,11.74
2023-05-09T21:09:40.917Z,11.72
2023-05-09T21:12:10.501Z,11.69
2023-05-09T21:14:37.842Z,11.68
2023-05-09T21:17:06.239Z,11.61
2023-05-09T21:19:33.158Z,11.54
2023-05-09T21:21:59.903Z,11.51
2023-05-09T21:24:26.929Z,11.49
2023-05-09T21:26:53.624Z,11.46
2023-05-09T21:29:20.318Z,11.52
2023-05-09T21:31:47.005Z,11.45
2023-05-09T21:34:15.075Z,11.37
2023-05-09T21:36:41.763Z,11.35
2023-05-09T21:39:08.641Z,11.32
2023-05-09T21:41:35.750Z,11.28
2023-05-09T21:44:02.754Z,11.24
2023-05-09T21:46:31.455Z,11.28
2023-05-09T21:48:58.232Z,11.26
2023-05-09T21:51:27.024Z,11.31
2023-05-09T21:53:53.809Z,11.28
2023-05-09T21:56:20.759Z,11.23
2023-05-09T21:58:47.616Z,11.26
2023-05-09T22:01:15.664Z,11.28
2023-05-09T22:03:43.193Z,11.30
2023-05-09T22:06:09.946Z,11.27
2023-05-09T22:08:38.118Z,11.32
2023-05-09T22:11:04.833Z,11.32
2023-05-09T22:13:31.506Z,11.28
2023-05-09T22:15:58.179Z,11.37
2023-05-09T22:18:24.907Z,11.40
2023-05-09T22:20:51.596Z,11.39
2023-05-09T22:23:18.323Z,11.41
2023-05-09T22:25:46.430Z,11.41
2023-05-09T22:28:13.107Z,11.37
2023-05-09T22:30:39.862Z,11.40
2023-05-09T22:33:06.727Z,11.36
2023-05-09T22:35:33.566Z,11.39
2023-05-09T22:38:00.298Z,11.38
2023-05-09T22:40:27.064Z,11.37
2023-05-09T22:42:55.118Z,11.36
2023-05-09T22:45:21.984Z,11.36
2023-05-09T22:47:48.802Z,11.38
2023-05-09T22:50:15.905Z,11.33
2023-05-09T22:52:42.801Z,11.34
2023-05-09T22:55:10.136Z,11.39
2023-05-09T22:57:36.822Z,11.36
2023-05-09T23:00:06.382Z,11.30
2023-05-09T23:02:33.311Z,11.27
2023-05-09T23:05:00.169Z,11.29
2023-05-09T23:07:26.859Z,11.34
2023-05-09T23:09:53.597Z,11.30
2023-05-09T23:12:20.426Z,11.32
2023-05-09T23:14:47.140Z,11.31
2023-05-09T23:17:15.245Z,11.32
2023-05-09T23:19:42.109Z,11.37
2023-05-09T23:22:08.944Z,11.29
2023-05-09T23:24:35.700Z,11.31
2023-05-09T23:27:02.510Z,11.23
2023-05-09T23:29:29.320Z,11.18
2023-05-09T23:31:56.168Z,11.14
2023-05-09T23:34:24.261Z,11.10
2023-05-09T23:36:51.051Z,11.13
2023-05-09T23:39:17.772Z,11.12
2023-05-09T23:41:44.524Z,11.11
2023-05-09T23:44:11.452Z,11.12
2023-05-09T23:46:38.197Z,11.12
2023-05-09T23:49:04.994Z,11.10
2023-05-09T23:51:33.220Z,11.07
2023-05-09T23:54:00.169Z,11.07
2023-05-09T23:56:26.927Z,11.13
2023-05-09T23:58:53.745Z,11.10
